sensor_id;sensor_type;location;lat;lon;timestamp;P1;durP1;ratioP1;P2;durP2;ratioP2
52320;SDS011;38261;54.090;13.382;2024-03-07T00:00:30;19.47;;;6.90;;
52320;SDS011;38261;54.090;13.382;2024-03-07T00:01:53;12.73;;;6.53;;
52320;SDS011;38261;54.090;13.382;2024-03-07T00:03:16;11.83;;;6.63;;
52320;SDS011;38261;54.090;13.382;2024-03-07T00:04:39;19.00;;;7.53;;
52320;SDS011;38261;54.090;13.382;2024-03-07T00:06:02;15.80;;;7.47;;
52320;SDS011;38261;54.090;13.382;2024-03-07T00:07:25;19.30;;;7.47;;
52320;SDS011;38261;54.090;13.382;2024-03-07T00:08:47;13.47;;;7.03;;
52320;SDS011;38261;54.090;13.382;2024-03-07T00:10:10;16.67;;;7.37;;
52320;SDS011;38261;54.090;13.382;2024-03-07T00:11:33;17.27;;;7.30;;
52320;SDS011;38261;54.090;13.382;2024-03-07T00:12:55;15.97;;;7.00;;
52320;SDS011;38261;54.090;13.382;2024-03-07T00:14:18;20.93;;;8.50;;
52320;SDS011;38261;54.090;13.382;2024-03-07T00:15:41;16.63;;;7.40;;
52320;SDS011;38261;54.090;13.382;2024-03-07T00:17:03;17.57;;;7.40;;
52320;SDS011;38261;54.090;13.382;2024-03-07T00:18:25;15.13;;;7.93;;
52320;SDS011;38261;54.090;13.382;2024-03-07T00:19:48;13.07;;;6.57;;
52320;SDS011;38261;54.090;13.382;2024-03-07T00:21:11;18.53;;;6.80;;
52320;SDS011;38261;54.090;13.382;2024-03-07T00:22:34;20.40;;;7.90;;
52320;SDS011;38261;54.090;13.382;2024-03-07T00:23:57;19.57;;;8.17;;
52320;SDS011;38261;54.090;13.382;2024-03-07T00:25:19;15.93;;;7.50;;
52320;SDS011;38261;54.090;13.382;2024-03-07T00:26:42;18.57;;;7.03;;
52320;SDS011;38261;54.090;13.382;2024-03-07T00:28:04;22.20;;;8.10;;
52320;SDS011;38261;54.090;13.382;2024-03-07T00:29:26;13.10;;;7.33;;
52320;SDS011;38261;54.090;13.382;2024-03-07T00:30:49;21.73;;;6.77;;
52320;SDS011;38261;54.090;13.382;2024-03-07T00:32:12;16.20;;;7.60;;
52320;SDS011;38261;54.090;13.382;2024-03-07T00:33:36;14.00;;;6.73;;
52320;SDS011;38261;54.090;13.382;2024-03-07T00:35:18;24.43;;;7.70;;
52320;SDS011;38261;54.090;13.382;2024-03-07T00:36:42;20.70;;;8.13;;
52320;SDS011;38261;54.090;13.382;2024-03-07T00:38:04;18.43;;;7.63;;
52320;SDS011;38261;54.090;13.382;2024-03-07T00:39:26;17.27;;;7.93;;
52320;SDS011;38261;54.090;13.382;2024-03-07T00:40:49;17.63;;;7.40;;
52320;SDS011;38261;54.090;13.382;2024-03-07T00:42:11;15.70;;;8.40;;
52320;SDS011;38261;54.090;13.382;2024-03-07T00:43:33;17.30;;;8.00;;
52320;SDS011;38261;54.090;13.382;2024-03-07T00:44:55;21.83;;;7.50;;
52320;SDS011;38261;54.090;13.382;2024-03-07T00:46:18;22.17;;;9.07;;
52320;SDS011;38261;54.090;13.382;2024-03-07T00:47:40;18.33;;;8.17;;
52320;SDS011;38261;54.090;13.382;2024-03-07T00:49:02;26.97;;;7.73;;
52320;SDS011;38261;54.090;13.382;2024-03-07T00:50:25;19.30;;;8.27;;
52320;SDS011;38261;54.090;13.382;2024-03-07T00:51:49;22.00;;;9.30;;
52320;SDS011;38261;54.090;13.382;2024-03-07T00:53:11;17.30;;;7.97;;
52320;SDS011;38261;54.090;13.382;2024-03-07T00:54:34;22.20;;;9.00;;
52320;SDS011;38261;54.090;13.382;2024-03-07T00:55:56;22.77;;;8.97;;
52320;SDS011;38261;54.090;13.382;2024-03-07T00:57:19;17.30;;;8.43;;
52320;SDS011;38261;54.090;13.382;2024-03-07T00:58:41;21.77;;;8.63;;
52320;SDS011;38261;54.090;13.382;2024-03-07T01:00:03;17.40;;;8.27;;
52320;SDS011;38261;54.090;13.382;2024-03-07T01:01:26;18.33;;;8.00;;
52320;SDS011;38261;54.090;13.382;2024-03-07T01:02:48;22.53;;;10.33;;
52320;SDS011;38261;54.090;13.382;2024-03-07T01:04:11;22.17;;;8.23;;
52320;SDS011;38261;54.090;13.382;2024-03-07T01:05:33;21.03;;;10.00;;
52320;SDS011;38261;54.090;13.382;2024-03-07T01:06:55;22.97;;;9.60;;
52320;SDS011;38261;54.090;13.382;2024-03-07T01:08:18;20.63;;;11.00;;
52320;SDS011;38261;54.090;13.382;2024-03-07T01:09:40;26.07;;;9.90;;
52320;SDS011;38261;54.090;13.382;2024-03-07T01:11:05;24.20;;;9.50;;
52320;SDS011;38261;54.090;13.382;2024-03-07T01:12:31;21.13;;;9.90;;
52320;SDS011;38261;54.090;13.382;2024-03-07T01:13:56;25.40;;;9.90;;
52320;SDS011;38261;54.090;13.382;2024-03-07T01:15:18;21.73;;;9.70;;
52320;SDS011;38261;54.090;13.382;2024-03-07T01:16:41;20.17;;;9.93;;
52320;SDS011;38261;54.090;13.382;2024-03-07T01:18:03;18.30;;;8.90;;
52320;SDS011;38261;54.090;13.382;2024-03-07T01:19:25;21.73;;;9.83;;
52320;SDS011;38261;54.090;13.382;2024-03-07T01:20:48;26.50;;;9.93;;
52320;SDS011;38261;54.090;13.382;2024-03-07T01:22:10;19.67;;;9.43;;
52320;SDS011;38261;54.090;13.382;2024-03-07T01:23:32;27.90;;;12.13;;
52320;SDS011;38261;54.090;13.382;2024-03-07T01:24:55;22.43;;;10.00;;
52320;SDS011;38261;54.090;13.382;2024-03-07T01:26:17;19.40;;;10.10;;
52320;SDS011;38261;54.090;13.382;2024-03-07T01:27:39;20.10;;;9.77;;
52320;SDS011;38261;54.090;13.382;2024-03-07T01:29:01;20.80;;;9.67;;
52320;SDS011;38261;54.090;13.382;2024-03-07T01:30:24;21.60;;;9.83;;
52320;SDS011;38261;54.090;13.382;2024-03-07T01:31:46;20.77;;;9.57;;
52320;SDS011;38261;54.090;13.382;2024-03-07T01:33:10;26.07;;;10.73;;
52320;SDS011;38261;54.090;13.382;2024-03-07T01:34:32;25.23;;;10.17;;
52320;SDS011;38261;54.090;13.382;2024-03-07T01:35:55;22.70;;;9.70;;
52320;SDS011;38261;54.090;13.382;2024-03-07T01:37:17;23.90;;;10.30;;
52320;SDS011;38261;54.090;13.382;2024-03-07T01:38:39;21.30;;;10.70;;
52320;SDS011;38261;54.090;13.382;2024-03-07T01:40:02;28.13;;;11.07;;
52320;SDS011;38261;54.090;13.382;2024-03-07T01:41:25;25.40;;;11.03;;
52320;SDS011;38261;54.090;13.382;2024-03-07T01:42:48;21.13;;;9.83;;
52320;SDS011;38261;54.090;13.382;2024-03-07T01:44:11;20.10;;;10.40;;
52320;SDS011;38261;54.090;13.382;2024-03-07T01:45:33;26.03;;;11.80;;
52320;SDS011;38261;54.090;13.382;2024-03-07T01:46:58;25.60;;;10.67;;
52320;SDS011;38261;54.090;13.382;2024-03-07T01:48:25;24.00;;;10.80;;
52320;SDS011;38261;54.090;13.382;2024-03-07T01:49:50;21.43;;;10.17;;
52320;SDS011;38261;54.090;13.382;2024-03-07T01:51:12;18.13;;;8.93;;
52320;SDS011;38261;54.090;13.382;2024-03-07T01:52:36;20.53;;;10.80;;
52320;SDS011;38261;54.090;13.382;2024-03-07T01:54:01;26.87;;;11.70;;
52320;SDS011;38261;54.090;13.382;2024-03-07T01:55:24;22.23;;;11.23;;
52320;SDS011;38261;54.090;13.382;2024-03-07T01:56:47;23.40;;;9.90;;
52320;SDS011;38261;54.090;13.382;2024-03-07T01:58:09;24.67;;;10.50;;
52320;SDS011;38261;54.090;13.382;2024-03-07T01:59:35;23.47;;;11.10;;
52320;SDS011;38261;54.090;13.382;2024-03-07T02:00:59;18.47;;;10.07;;
52320;SDS011;38261;54.090;13.382;2024-03-07T02:02:22;31.37;;;11.80;;
52320;SDS011;38261;54.090;13.382;2024-03-07T02:03:44;27.60;;;11.10;;
52320;SDS011;38261;54.090;13.382;2024-03-07T02:05:06;31.63;;;10.80;;
52320;SDS011;38261;54.090;13.382;2024-03-07T02:06:28;18.70;;;10.80;;
52320;SDS011;38261;54.090;13.382;2024-03-07T02:07:51;28.47;;;11.50;;
52320;SDS011;38261;54.090;13.382;2024-03-07T02:09:13;25.87;;;12.47;;
52320;SDS011;38261;54.090;13.382;2024-03-07T02:10:36;27.53;;;11.60;;
52320;SDS011;38261;54.090;13.382;2024-03-07T02:11:58;35.03;;;11.90;;
52320;SDS011;38261;54.090;13.382;2024-03-07T02:13:20;24.77;;;11.13;;
52320;SDS011;38261;54.090;13.382;2024-03-07T02:14:42;31.63;;;11.90;;
52320;SDS011;38261;54.090;13.382;2024-03-07T02:16:04;29.70;;;11.50;;
52320;SDS011;38261;54.090;13.382;2024-03-07T02:17:29;26.70;;;12.47;;
52320;SDS011;38261;54.090;13.382;2024-03-07T02:18:51;25.30;;;10.73;;
52320;SDS011;38261;54.090;13.382;2024-03-07T02:20:14;29.13;;;11.53;;
52320;SDS011;38261;54.090;13.382;2024-03-07T02:21:37;25.10;;;11.70;;
52320;SDS011;38261;54.090;13.382;2024-03-07T02:22:59;25.80;;;11.77;;
52320;SDS011;38261;54.090;13.382;2024-03-07T02:24:21;22.13;;;9.70;;
52320;SDS011;38261;54.090;13.382;2024-03-07T02:25:44;26.50;;;11.30;;
52320;SDS011;38261;54.090;13.382;2024-03-07T02:27:06;25.13;;;10.80;;
52320;SDS011;38261;54.090;13.382;2024-03-07T02:28:30;22.27;;;11.00;;
52320;SDS011;38261;54.090;13.382;2024-03-07T02:29:52;25.47;;;11.73;;
52320;SDS011;38261;54.090;13.382;2024-03-07T02:31:14;30.27;;;12.17;;
52320;SDS011;38261;54.090;13.382;2024-03-07T02:32:36;24.13;;;11.37;;
52320;SDS011;38261;54.090;13.382;2024-03-07T02:33:59;25.63;;;11.63;;
52320;SDS011;38261;54.090;13.382;2024-03-07T02:35:21;24.87;;;11.60;;
52320;SDS011;38261;54.090;13.382;2024-03-07T02:36:43;30.67;;;12.57;;
52320;SDS011;38261;54.090;13.382;2024-03-07T02:38:05;25.37;;;11.90;;
52320;SDS011;38261;54.090;13.382;2024-03-07T02:39:27;25.17;;;12.60;;
52320;SDS011;38261;54.090;13.382;2024-03-07T02:40:50;29.73;;;11.27;;
52320;SDS011;38261;54.090;13.382;2024-03-07T02:42:12;30.60;;;10.43;;
52320;SDS011;38261;54.090;13.382;2024-03-07T02:43:34;26.57;;;11.60;;
52320;SDS011;38261;54.090;13.382;2024-03-07T02:44:59;30.77;;;11.83;;
52320;SDS011;38261;54.090;13.382;2024-03-07T02:46:21;24.60;;;11.87;;
52320;SDS011;38261;54.090;13.382;2024-03-07T02:47:43;28.90;;;11.13;;
52320;SDS011;38261;54.090;13.382;2024-03-07T02:49:06;28.27;;;11.77;;
52320;SDS011;38261;54.090;13.382;2024-03-07T02:50:28;30.13;;;11.60;;
52320;SDS011;38261;54.090;13.382;2024-03-07T02:51:51;27.90;;;11.30;;
52320;SDS011;38261;54.090;13.382;2024-03-07T02:53:13;23.93;;;10.60;;
52320;SDS011;38261;54.090;13.382;2024-03-07T02:54:36;27.27;;;12.37;;
52320;SDS011;38261;54.090;13.382;2024-03-07T02:55:58;26.43;;;11.17;;
52320;SDS011;38261;54.090;13.382;2024-03-07T02:57:21;23.90;;;11.43;;
52320;SDS011;38261;54.090;13.382;2024-03-07T02:58:43;27.70;;;12.30;;
52320;SDS011;38261;54.090;13.382;2024-03-07T03:00:05;20.83;;;11.17;;
52320;SDS011;38261;54.090;13.382;2024-03-07T03:01:40;25.40;;;12.90;;
52320;SDS011;38261;54.090;13.382;2024-03-07T03:03:02;30.80;;;12.27;;
52320;SDS011;38261;54.090;13.382;2024-03-07T03:04:25;26.10;;;12.00;;
52320;SDS011;38261;54.090;13.382;2024-03-07T03:05:47;30.47;;;12.23;;
52320;SDS011;38261;54.090;13.382;2024-03-07T03:07:09;32.90;;;13.03;;
52320;SDS011;38261;54.090;13.382;2024-03-07T03:08:31;26.70;;;12.50;;
52320;SDS011;38261;54.090;13.382;2024-03-07T03:09:54;30.10;;;11.67;;
52320;SDS011;38261;54.090;13.382;2024-03-07T03:11:16;30.40;;;11.60;;
52320;SDS011;38261;54.090;13.382;2024-03-07T03:12:38;26.20;;;10.90;;
52320;SDS011;38261;54.090;13.382;2024-03-07T03:14:00;30.17;;;11.93;;
52320;SDS011;38261;54.090;13.382;2024-03-07T03:15:22;29.90;;;11.27;;
52320;SDS011;38261;54.090;13.382;2024-03-07T03:16:45;32.30;;;12.97;;
52320;SDS011;38261;54.090;13.382;2024-03-07T03:18:09;25.33;;;10.97;;
52320;SDS011;38261;54.090;13.382;2024-03-07T03:19:32;32.87;;;12.97;;
52320;SDS011;38261;54.090;13.382;2024-03-07T03:20:54;27.73;;;11.90;;
52320;SDS011;38261;54.090;13.382;2024-03-07T03:22:16;30.53;;;11.20;;
52320;SDS011;38261;54.090;13.382;2024-03-07T03:23:40;23.90;;;12.30;;
52320;SDS011;38261;54.090;13.382;2024-03-07T03:25:02;20.83;;;11.10;;
52320;SDS011;38261;54.090;13.382;2024-03-07T03:26:25;28.10;;;12.30;;
52320;SDS011;38261;54.090;13.382;2024-03-07T03:27:47;28.37;;;12.40;;
52320;SDS011;38261;54.090;13.382;2024-03-07T03:29:10;25.70;;;12.27;;
52320;SDS011;38261;54.090;13.382;2024-03-07T03:30:33;24.10;;;10.73;;
52320;SDS011;38261;54.090;13.382;2024-03-07T03:31:55;23.30;;;11.13;;
52320;SDS011;38261;54.090;13.382;2024-03-07T03:33:18;25.67;;;11.70;;
52320;SDS011;38261;54.090;13.382;2024-03-07T03:34:42;25.73;;;11.80;;
52320;SDS011;38261;54.090;13.382;2024-03-07T03:36:04;26.90;;;12.40;;
52320;SDS011;38261;54.090;13.382;2024-03-07T03:37:26;30.03;;;11.40;;
52320;SDS011;38261;54.090;13.382;2024-03-07T03:38:49;25.57;;;10.70;;
52320;SDS011;38261;54.090;13.382;2024-03-07T03:40:12;30.47;;;13.10;;
52320;SDS011;38261;54.090;13.382;2024-03-07T03:41:34;24.87;;;12.37;;
52320;SDS011;38261;54.090;13.382;2024-03-07T03:42:56;24.00;;;11.50;;
52320;SDS011;38261;54.090;13.382;2024-03-07T03:44:18;27.57;;;12.20;;
52320;SDS011;38261;54.090;13.382;2024-03-07T03:45:41;24.13;;;11.60;;
52320;SDS011;38261;54.090;13.382;2024-03-07T03:47:03;27.13;;;12.43;;
52320;SDS011;38261;54.090;13.382;2024-03-07T03:48:25;25.20;;;12.17;;
52320;SDS011;38261;54.090;13.382;2024-03-07T03:49:48;21.03;;;11.20;;
52320;SDS011;38261;54.090;13.382;2024-03-07T03:51:10;25.10;;;11.53;;
52320;SDS011;38261;54.090;13.382;2024-03-07T03:52:34;29.73;;;12.00;;
52320;SDS011;38261;54.090;13.382;2024-03-07T03:53:56;26.73;;;13.20;;
52320;SDS011;38261;54.090;13.382;2024-03-07T03:55:19;31.77;;;12.93;;
52320;SDS011;38261;54.090;13.382;2024-03-07T03:56:42;33.37;;;13.40;;
52320;SDS011;38261;54.090;13.382;2024-03-07T03:58:04;29.10;;;12.20;;
52320;SDS011;38261;54.090;13.382;2024-03-07T03:59:29;24.97;;;11.83;;
52320;SDS011;38261;54.090;13.382;2024-03-07T04:00:52;27.50;;;12.50;;
52320;SDS011;38261;54.090;13.382;2024-03-07T04:02:14;28.07;;;12.20;;
52320;SDS011;38261;54.090;13.382;2024-03-07T04:03:38;24.73;;;11.53;;
52320;SDS011;38261;54.090;13.382;2024-03-07T04:05:01;25.50;;;11.60;;
52320;SDS011;38261;54.090;13.382;2024-03-07T04:06:23;22.33;;;12.17;;
52320;SDS011;38261;54.090;13.382;2024-03-07T04:07:45;32.17;;;12.73;;
52320;SDS011;38261;54.090;13.382;2024-03-07T04:09:07;27.93;;;13.07;;
52320;SDS011;38261;54.090;13.382;2024-03-07T04:10:29;23.00;;;10.87;;
52320;SDS011;38261;54.090;13.382;2024-03-07T04:11:52;27.23;;;12.10;;
52320;SDS011;38261;54.090;13.382;2024-03-07T04:13:14;23.83;;;11.43;;
52320;SDS011;38261;54.090;13.382;2024-03-07T04:14:37;28.97;;;12.27;;
52320;SDS011;38261;54.090;13.382;2024-03-07T04:16:02;26.47;;;11.80;;
52320;SDS011;38261;54.090;13.382;2024-03-07T04:17:25;30.90;;;12.23;;
52320;SDS011;38261;54.090;13.382;2024-03-07T04:18:47;35.57;;;12.53;;
52320;SDS011;38261;54.090;13.382;2024-03-07T04:20:09;23.60;;;11.50;;
52320;SDS011;38261;54.090;13.382;2024-03-07T04:21:32;39.23;;;12.93;;
52320;SDS011;38261;54.090;13.382;2024-03-07T04:22:54;26.97;;;11.70;;
52320;SDS011;38261;54.090;13.382;2024-03-07T04:24:17;25.87;;;11.43;;
52320;SDS011;38261;54.090;13.382;2024-03-07T04:25:39;25.37;;;11.80;;
52320;SDS011;38261;54.090;13.382;2024-03-07T04:27:01;26.50;;;11.60;;
52320;SDS011;38261;54.090;13.382;2024-03-07T04:28:27;24.73;;;12.00;;
52320;SDS011;38261;54.090;13.382;2024-03-07T04:29:49;21.50;;;11.03;;
52320;SDS011;38261;54.090;13.382;2024-03-07T04:31:12;26.10;;;12.00;;
52320;SDS011;38261;54.090;13.382;2024-03-07T04:32:38;34.40;;;11.93;;
52320;SDS011;38261;54.090;13.382;2024-03-07T04:34:03;26.60;;;12.67;;
52320;SDS011;38261;54.090;13.382;2024-03-07T04:35:26;24.27;;;11.27;;
52320;SDS011;38261;54.090;13.382;2024-03-07T04:36:48;22.73;;;10.67;;
52320;SDS011;38261;54.090;13.382;2024-03-07T04:38:10;26.60;;;11.53;;
52320;SDS011;38261;54.090;13.382;2024-03-07T04:39:39;23.70;;;11.27;;
52320;SDS011;38261;54.090;13.382;2024-03-07T04:41:01;21.77;;;11.40;;
52320;SDS011;38261;54.090;13.382;2024-03-07T04:42:25;30.37;;;11.27;;
52320;SDS011;38261;54.090;13.382;2024-03-07T04:43:47;29.63;;;11.77;;
52320;SDS011;38261;54.090;13.382;2024-03-07T04:45:10;20.77;;;11.27;;
52320;SDS011;38261;54.090;13.382;2024-03-07T04:46:34;25.63;;;11.20;;
52320;SDS011;38261;54.090;13.382;2024-03-07T04:47:57;26.57;;;11.87;;
52320;SDS011;38261;54.090;13.382;2024-03-07T04:49:19;26.53;;;11.37;;
52320;SDS011;38261;54.090;13.382;2024-03-07T04:50:41;25.03;;;11.47;;
52320;SDS011;38261;54.090;13.382;2024-03-07T04:52:04;24.40;;;11.53;;
52320;SDS011;38261;54.090;13.382;2024-03-07T04:53:26;22.70;;;11.70;;
52320;SDS011;38261;54.090;13.382;2024-03-07T04:54:48;25.00;;;11.80;;
52320;SDS011;38261;54.090;13.382;2024-03-07T04:56:10;28.10;;;12.33;;
52320;SDS011;38261;54.090;13.382;2024-03-07T04:57:33;22.70;;;11.50;;
52320;SDS011;38261;54.090;13.382;2024-03-07T04:58:55;28.63;;;11.33;;
52320;SDS011;38261;54.090;13.382;2024-03-07T05:00:17;25.10;;;12.43;;
52320;SDS011;38261;54.090;13.382;2024-03-07T05:01:42;23.73;;;12.10;;
52320;SDS011;38261;54.090;13.382;2024-03-07T05:03:05;23.83;;;11.70;;
52320;SDS011;38261;54.090;13.382;2024-03-07T05:04:27;25.73;;;12.07;;
52320;SDS011;38261;54.090;13.382;2024-03-07T05:05:51;23.53;;;10.97;;
52320;SDS011;38261;54.090;13.382;2024-03-07T05:07:13;26.53;;;12.60;;
52320;SDS011;38261;54.090;13.382;2024-03-07T05:08:36;33.10;;;12.80;;
52320;SDS011;38261;54.090;13.382;2024-03-07T05:09:58;27.90;;;12.03;;
52320;SDS011;38261;54.090;13.382;2024-03-07T05:11:21;23.60;;;11.10;;
52320;SDS011;38261;54.090;13.382;2024-03-07T05:12:43;25.77;;;11.87;;
52320;SDS011;38261;54.090;13.382;2024-03-07T05:14:05;32.03;;;12.70;;
52320;SDS011;38261;54.090;13.382;2024-03-07T05:15:27;25.23;;;12.37;;
52320;SDS011;38261;54.090;13.382;2024-03-07T05:16:50;22.93;;;11.70;;
52320;SDS011;38261;54.090;13.382;2024-03-07T05:18:29;22.23;;;11.40;;
52320;SDS011;38261;54.090;13.382;2024-03-07T05:19:52;22.13;;;10.60;;
52320;SDS011;38261;54.090;13.382;2024-03-07T05:21:14;26.13;;;11.60;;
52320;SDS011;38261;54.090;13.382;2024-03-07T05:22:54;22.33;;;11.57;;
52320;SDS011;38261;54.090;13.382;2024-03-07T05:24:16;23.97;;;11.30;;
52320;SDS011;38261;54.090;13.382;2024-03-07T05:25:39;25.93;;;12.33;;
52320;SDS011;38261;54.090;13.382;2024-03-07T05:27:01;23.60;;;11.07;;
52320;SDS011;38261;54.090;13.382;2024-03-07T05:28:24;26.63;;;11.97;;
52320;SDS011;38261;54.090;13.382;2024-03-07T05:29:46;25.40;;;11.47;;
52320;SDS011;38261;54.090;13.382;2024-03-07T05:31:08;25.03;;;11.80;;
52320;SDS011;38261;54.090;13.382;2024-03-07T05:32:33;27.00;;;11.37;;
52320;SDS011;38261;54.090;13.382;2024-03-07T05:33:56;25.57;;;11.10;;
52320;SDS011;38261;54.090;13.382;2024-03-07T05:35:18;30.30;;;12.00;;
52320;SDS011;38261;54.090;13.382;2024-03-07T05:36:43;31.33;;;12.30;;
52320;SDS011;38261;54.090;13.382;2024-03-07T05:38:06;25.30;;;12.00;;
52320;SDS011;38261;54.090;13.382;2024-03-07T05:39:28;32.30;;;12.90;;
52320;SDS011;38261;54.090;13.382;2024-03-07T05:40:51;26.20;;;12.57;;
52320;SDS011;38261;54.090;13.382;2024-03-07T05:42:13;30.00;;;14.00;;
52320;SDS011;38261;54.090;13.382;2024-03-07T05:43:36;24.33;;;12.10;;
52320;SDS011;38261;54.090;13.382;2024-03-07T05:44:58;26.83;;;12.47;;
52320;SDS011;38261;54.090;13.382;2024-03-07T05:46:21;25.90;;;12.00;;
52320;SDS011;38261;54.090;13.382;2024-03-07T05:47:44;26.73;;;13.33;;
52320;SDS011;38261;54.090;13.382;2024-03-07T05:49:09;24.23;;;11.63;;
52320;SDS011;38261;54.090;13.382;2024-03-07T05:50:31;23.80;;;12.20;;
52320;SDS011;38261;54.090;13.382;2024-03-07T05:51:53;27.97;;;12.10;;
52320;SDS011;38261;54.090;13.382;2024-03-07T05:53:15;24.20;;;11.90;;
52320;SDS011;38261;54.090;13.382;2024-03-07T05:54:39;30.60;;;13.10;;
52320;SDS011;38261;54.090;13.382;2024-03-07T05:56:02;24.10;;;10.87;;
52320;SDS011;38261;54.090;13.382;2024-03-07T05:57:24;30.77;;;11.50;;
52320;SDS011;38261;54.090;13.382;2024-03-07T05:58:46;25.40;;;12.33;;
52320;SDS011;38261;54.090;13.382;2024-03-07T06:00:09;30.03;;;12.77;;
52320;SDS011;38261;54.090;13.382;2024-03-07T06:01:33;23.03;;;11.40;;
52320;SDS011;38261;54.090;13.382;2024-03-07T06:02:56;26.33;;;13.33;;
52320;SDS011;38261;54.090;13.382;2024-03-07T06:04:18;29.57;;;13.00;;
52320;SDS011;38261;54.090;13.382;2024-03-07T06:05:41;27.17;;;11.87;;
52320;SDS011;38261;54.090;13.382;2024-03-07T06:07:04;25.40;;;12.17;;
52320;SDS011;38261;54.090;13.382;2024-03-07T06:08:27;24.77;;;12.87;;
52320;SDS011;38261;54.090;13.382;2024-03-07T06:09:49;26.07;;;13.37;;
52320;SDS011;38261;54.090;13.382;2024-03-07T06:11:12;24.53;;;12.00;;
52320;SDS011;38261;54.090;13.382;2024-03-07T06:12:35;29.20;;;11.30;;
52320;SDS011;38261;54.090;13.382;2024-03-07T06:13:57;28.03;;;12.80;;
52320;SDS011;38261;54.090;13.382;2024-03-07T06:15:20;26.60;;;13.20;;
52320;SDS011;38261;54.090;13.382;2024-03-07T06:16:42;27.63;;;13.33;;
52320;SDS011;38261;54.090;13.382;2024-03-07T06:18:05;26.80;;;11.57;;
52320;SDS011;38261;54.090;13.382;2024-03-07T06:19:30;26.33;;;11.60;;
52320;SDS011;38261;54.090;13.382;2024-03-07T06:20:52;29.23;;;13.80;;
52320;SDS011;38261;54.090;13.382;2024-03-07T06:22:14;24.47;;;13.43;;
52320;SDS011;38261;54.090;13.382;2024-03-07T06:23:36;35.33;;;14.43;;
52320;SDS011;38261;54.090;13.382;2024-03-07T06:24:59;27.90;;;12.30;;
52320;SDS011;38261;54.090;13.382;2024-03-07T06:26:28;27.57;;;13.47;;
52320;SDS011;38261;54.090;13.382;2024-03-07T06:28:10;23.67;;;12.37;;
52320;SDS011;38261;54.090;13.382;2024-03-07T06:29:33;28.00;;;13.00;;
52320;SDS011;38261;54.090;13.382;2024-03-07T06:30:55;21.93;;;11.73;;
52320;SDS011;38261;54.090;13.382;2024-03-07T06:32:17;26.63;;;12.83;;
52320;SDS011;38261;54.090;13.382;2024-03-07T06:33:40;25.33;;;12.47;;
52320;SDS011;38261;54.090;13.382;2024-03-07T06:35:02;24.40;;;11.23;;
52320;SDS011;38261;54.090;13.382;2024-03-07T06:36:26;23.17;;;11.73;;
52320;SDS011;38261;54.090;13.382;2024-03-07T06:37:49;22.47;;;13.10;;
52320;SDS011;38261;54.090;13.382;2024-03-07T06:39:11;29.50;;;13.87;;
52320;SDS011;38261;54.090;13.382;2024-03-07T06:40:34;27.07;;;13.17;;
52320;SDS011;38261;54.090;13.382;2024-03-07T06:41:57;25.93;;;12.33;;
52320;SDS011;38261;54.090;13.382;2024-03-07T06:43:20;27.23;;;13.87;;
52320;SDS011;38261;54.090;13.382;2024-03-07T06:44:42;22.37;;;11.87;;
52320;SDS011;38261;54.090;13.382;2024-03-07T06:46:04;24.50;;;12.73;;
52320;SDS011;38261;54.090;13.382;2024-03-07T06:47:27;25.00;;;12.30;;
52320;SDS011;38261;54.090;13.382;2024-03-07T06:48:49;24.50;;;12.00;;
52320;SDS011;38261;54.090;13.382;2024-03-07T06:50:13;26.50;;;12.20;;
52320;SDS011;38261;54.090;13.382;2024-03-07T06:51:54;25.20;;;12.23;;
52320;SDS011;38261;54.090;13.382;2024-03-07T06:53:16;22.60;;;11.10;;
52320;SDS011;38261;54.090;13.382;2024-03-07T06:54:38;23.90;;;12.40;;
52320;SDS011;38261;54.090;13.382;2024-03-07T06:56:00;26.43;;;11.57;;
52320;SDS011;38261;54.090;13.382;2024-03-07T06:57:23;21.60;;;11.50;;
52320;SDS011;38261;54.090;13.382;2024-03-07T06:58:45;22.70;;;11.70;;
52320;SDS011;38261;54.090;13.382;2024-03-07T07:00:08;25.00;;;11.00;;
52320;SDS011;38261;54.090;13.382;2024-03-07T07:01:32;23.10;;;10.80;;
52320;SDS011;38261;54.090;13.382;2024-03-07T07:02:56;25.73;;;11.80;;
52320;SDS011;38261;54.090;13.382;2024-03-07T07:04:19;18.77;;;10.80;;
52320;SDS011;38261;54.090;13.382;2024-03-07T07:05:41;21.47;;;10.60;;
52320;SDS011;38261;54.090;13.382;2024-03-07T07:07:03;24.40;;;11.37;;
52320;SDS011;38261;54.090;13.382;2024-03-07T07:08:25;25.00;;;10.50;;
52320;SDS011;38261;54.090;13.382;2024-03-07T07:09:48;22.10;;;11.23;;
52320;SDS011;38261;54.090;13.382;2024-03-07T07:11:13;21.40;;;11.10;;
52320;SDS011;38261;54.090;13.382;2024-03-07T07:12:35;23.77;;;11.27;;
52320;SDS011;38261;54.090;13.382;2024-03-07T07:13:57;19.90;;;10.03;;
52320;SDS011;38261;54.090;13.382;2024-03-07T07:15:20;26.40;;;12.30;;
52320;SDS011;38261;54.090;13.382;2024-03-07T07:16:42;23.30;;;11.57;;
52320;SDS011;38261;54.090;13.382;2024-03-07T07:18:07;21.47;;;10.83;;
52320;SDS011;38261;54.090;13.382;2024-03-07T07:19:29;20.00;;;11.40;;
52320;SDS011;38261;54.090;13.382;2024-03-07T07:20:51;17.90;;;9.63;;
52320;SDS011;38261;54.090;13.382;2024-03-07T07:22:14;22.80;;;9.83;;
52320;SDS011;38261;54.090;13.382;2024-03-07T07:23:36;21.97;;;11.17;;
52320;SDS011;38261;54.090;13.382;2024-03-07T07:24:59;22.27;;;10.23;;
52320;SDS011;38261;54.090;13.382;2024-03-07T07:26:21;24.67;;;11.10;;
52320;SDS011;38261;54.090;13.382;2024-03-07T07:27:43;20.00;;;10.67;;
52320;SDS011;38261;54.090;13.382;2024-03-07T07:29:10;24.70;;;10.47;;
52320;SDS011;38261;54.090;13.382;2024-03-07T07:30:32;25.90;;;9.50;;
52320;SDS011;38261;54.090;13.382;2024-03-07T07:31:55;17.33;;;9.30;;
52320;SDS011;38261;54.090;13.382;2024-03-07T07:33:17;23.43;;;10.60;;
52320;SDS011;38261;54.090;13.382;2024-03-07T07:34:40;22.60;;;12.37;;
52320;SDS011;38261;54.090;13.382;2024-03-07T07:36:04;19.70;;;9.70;;
52320;SDS011;38261;54.090;13.382;2024-03-07T07:37:26;20.70;;;9.87;;
52320;SDS011;38261;54.090;13.382;2024-03-07T07:38:49;24.03;;;11.20;;
52320;SDS011;38261;54.090;13.382;2024-03-07T07:40:12;17.57;;;8.87;;
52320;SDS011;38261;54.090;13.382;2024-03-07T07:41:36;20.70;;;10.10;;
52320;SDS011;38261;54.090;13.382;2024-03-07T07:42:58;19.43;;;9.70;;
52320;SDS011;38261;54.090;13.382;2024-03-07T07:44:23;19.80;;;9.57;;
52320;SDS011;38261;54.090;13.382;2024-03-07T07:45:45;20.30;;;10.23;;
52320;SDS011;38261;54.090;13.382;2024-03-07T07:47:07;15.93;;;9.27;;
52320;SDS011;38261;54.090;13.382;2024-03-07T07:48:29;19.90;;;10.50;;
52320;SDS011;38261;54.090;13.382;2024-03-07T07:49:51;22.30;;;10.30;;
52320;SDS011;38261;54.090;13.382;2024-03-07T07:51:13;18.13;;;9.90;;
52320;SDS011;38261;54.090;13.382;2024-03-07T07:52:35;23.83;;;11.23;;
52320;SDS011;38261;54.090;13.382;2024-03-07T07:53:58;23.80;;;9.60;;
52320;SDS011;38261;54.090;13.382;2024-03-07T07:55:21;21.13;;;10.17;;
52320;SDS011;38261;54.090;13.382;2024-03-07T07:56:48;22.37;;;9.80;;
52320;SDS011;38261;54.090;13.382;2024-03-07T07:58:10;18.07;;;9.17;;
52320;SDS011;38261;54.090;13.382;2024-03-07T07:59:32;18.77;;;9.90;;